Alfred, North Dakota
Current Conditions -  °F | °C
As of 7:56 PM on Monday 20 Oct 2014 (Local Time) from KJMS Reporting Station
Clear Clear  
Wind Chill: 12°   Ceiling: Unl
Heat Index: 12°   Visibility: 10mi
Dew Point:   Wind: 8mph
Humidity: 59%   Direction: 120°ESE
Pressure: 29.99"   Gusts: NA
Location:  46.4882°N, 98.8135°W
Report Text: KJMS 210056Z AUTO 12007KT 10SM CLR 12/04 A2999 RMK AO2 SLP166 T01220044
Loading
Personal Weather Stations






























Interactive Weather Map
Tropical Storm Tracking
New forecast layout! Learn more

10-Day Weather Forecast

Advertisements
Track Severe Weather on mobile